sensor_id;sensor_type;location;lat;lon;timestamp;pressure;altitude;pressure_sealevel;temperature;humidity
9764;BME280;4921;43.214;27.936;2023-04-28T00:00:48;101189.75;;;12.00;49.41
9764;BME280;4921;43.214;27.936;2023-04-28T00:03:15;101199.03;;;12.05;49.34
9764;BME280;4921;43.214;27.936;2023-04-28T00:05:44;101199.38;;;12.01;49.34
9764;BME280;4921;43.214;27.936;2023-04-28T00:08:11;101200.66;;;11.95;49.94
9764;BME280;4921;43.214;27.936;2023-04-28T00:10:38;101210.84;;;12.00;50.26
9764;BME280;4921;43.214;27.936;2023-04-28T00:13:05;101208.34;;;11.98;50.02
9764;BME280;4921;43.214;27.936;2023-04-28T00:15:32;101216.84;;;12.02;49.71
9764;BME280;4921;43.214;27.936;2023-04-28T00:17:59;101212.38;;;11.91;50.21
9764;BME280;4921;43.214;27.936;2023-04-28T00:20:26;101208.00;;;12.03;49.64
9764;BME280;4921;43.214;27.936;2023-04-28T00:22:54;101211.56;;;12.02;49.47
9764;BME280;4921;43.214;27.936;2023-04-28T00:25:21;101205.72;;;12.09;48.99
9764;BME280;4921;43.214;27.936;2023-04-28T00:27:48;101209.34;;;12.19;48.78
9764;BME280;4921;43.214;27.936;2023-04-28T00:30:15;101208.38;;;12.09;48.93
9764;BME280;4921;43.214;27.936;2023-04-28T00:32:42;101215.66;;;12.06;49.42
9764;BME280;4921;43.214;27.936;2023-04-28T00:35:09;101211.94;;;12.08;49.36
9764;BME280;4921;43.214;27.936;2023-04-28T00:37:37;101213.66;;;12.09;49.43
9764;BME280;4921;43.214;27.936;2023-04-28T00:40:06;101226.91;;;12.08;49.53
9764;BME280;4921;43.214;27.936;2023-04-28T00:42:33;101239.63;;;12.03;49.07
9764;BME280;4921;43.214;27.936;2023-04-28T00:45:00;101241.88;;;11.96;49.39
9764;BME280;4921;43.214;27.936;2023-04-28T00:47:32;101245.97;;;12.00;49.84
9764;BME280;4921;43.214;27.936;2023-04-28T00:50:00;101234.91;;;11.95;50.35
9764;BME280;4921;43.214;27.936;2023-04-28T00:52:27;101241.03;;;11.96;50.70
9764;BME280;4921;43.214;27.936;2023-04-28T00:54:54;101230.66;;;12.05;50.58
9764;BME280;4921;43.214;27.936;2023-04-28T00:57:23;101232.97;;;11.86;51.38
9764;BME280;4921;43.214;27.936;2023-04-28T00:59:50;101229.63;;;11.84;51.64
9764;BME280;4921;43.214;27.936;2023-04-28T01:02:17;101225.09;;;11.97;50.64
9764;BME280;4921;43.214;27.936;2023-04-28T01:04:44;101231.19;;;11.87;50.69
9764;BME280;4921;43.214;27.936;2023-04-28T01:07:12;101232.00;;;11.76;51.31
9764;BME280;4921;43.214;27.936;2023-04-28T01:09:39;101233.31;;;11.82;50.90
9764;BME280;4921;43.214;27.936;2023-04-28T01:12:06;101222.75;;;11.71;51.18
9764;BME280;4921;43.214;27.936;2023-04-28T01:14:34;101229.47;;;11.75;51.27
9764;BME280;4921;43.214;27.936;2023-04-28T01:17:02;101219.59;;;11.66;51.18
9764;BME280;4921;43.214;27.936;2023-04-28T01:19:29;101228.25;;;11.68;50.88
9764;BME280;4921;43.214;27.936;2023-04-28T01:21:56;101234.25;;;11.70;50.09
9764;BME280;4921;43.214;27.936;2023-04-28T01:24:24;101236.44;;;11.63;50.27
9764;BME280;4921;43.214;27.936;2023-04-28T01:26:51;101238.19;;;11.51;50.96
9764;BME280;4921;43.214;27.936;2023-04-28T01:29:18;101233.09;;;11.61;50.26
9764;BME280;4921;43.214;27.936;2023-04-28T01:31:45;101233.63;;;11.42;50.56
9764;BME280;4921;43.214;27.936;2023-04-28T01:34:12;101230.13;;;11.42;51.08
9764;BME280;4921;43.214;27.936;2023-04-28T01:36:39;101232.44;;;11.46;50.35
9764;BME280;4921;43.214;27.936;2023-04-28T01:39:06;101234.22;;;11.46;50.44
9764;BME280;4921;43.214;27.936;2023-04-28T01:41:34;101227.31;;;11.32;51.80
9764;BME280;4921;43.214;27.936;2023-04-28T01:44:01;101235.22;;;11.32;51.89
9764;BME280;4921;43.214;27.936;2023-04-28T01:46:28;101236.47;;;11.39;51.67
9764;BME280;4921;43.214;27.936;2023-04-28T01:48:55;101229.34;;;11.52;51.47
9764;BME280;4921;43.214;27.936;2023-04-28T01:51:22;101233.72;;;11.41;51.24
9764;BME280;4921;43.214;27.936;2023-04-28T01:53:49;101229.41;;;11.40;52.10
9764;BME280;4921;43.214;27.936;2023-04-28T01:56:16;101230.47;;;11.37;52.28
9764;BME280;4921;43.214;27.936;2023-04-28T01:58:44;101233.56;;;11.31;51.95
9764;BME280;4921;43.214;27.936;2023-04-28T02:01:11;101232.59;;;11.32;52.40
9764;BME280;4921;43.214;27.936;2023-04-28T02:03:38;101228.09;;;11.45;51.46
9764;BME280;4921;43.214;27.936;2023-04-28T02:06:05;101232.91;;;11.40;50.31
9764;BME280;4921;43.214;27.936;2023-04-28T02:08:32;101225.53;;;11.33;50.47
9764;BME280;4921;43.214;27.936;2023-04-28T02:10:59;101237.03;;;11.32;50.20
9764;BME280;4921;43.214;27.936;2023-04-28T02:13:26;101234.81;;;11.26;50.23
9764;BME280;4921;43.214;27.936;2023-04-28T02:15:54;101233.16;;;11.25;50.38
9764;BME280;4921;43.214;27.936;2023-04-28T02:18:21;101237.56;;;11.24;50.41
9764;BME280;4921;43.214;27.936;2023-04-28T02:20:48;101238.31;;;11.26;50.33
9764;BME280;4921;43.214;27.936;2023-04-28T02:23:15;101233.56;;;11.31;50.18
9764;BME280;4921;43.214;27.936;2023-04-28T02:25:42;101227.25;;;11.21;50.17
9764;BME280;4921;43.214;27.936;2023-04-28T02:28:09;101236.25;;;11.19;50.07
9764;BME280;4921;43.214;27.936;2023-04-28T02:30:36;101236.84;;;11.22;50.16
9764;BME280;4921;43.214;27.936;2023-04-28T02:33:04;101242.56;;;11.16;49.79
9764;BME280;4921;43.214;27.936;2023-04-28T02:35:31;101239.94;;;11.16;49.40
9764;BME280;4921;43.214;27.936;2023-04-28T02:37:58;101243.81;;;11.11;50.41
9764;BME280;4921;43.214;27.936;2023-04-28T02:40:25;101247.19;;;11.13;48.69
9764;BME280;4921;43.214;27.936;2023-04-28T02:42:52;101256.56;;;11.17;47.92
9764;BME280;4921;43.214;27.936;2023-04-28T02:45:18;101263.94;;;11.12;48.66
9764;BME280;4921;43.214;27.936;2023-04-28T02:47:45;101262.16;;;11.12;49.83
9764;BME280;4921;43.214;27.936;2023-04-28T02:50:14;101267.84;;;11.06;50.42
9764;BME280;4921;43.214;27.936;2023-04-28T02:52:40;101267.47;;;11.00;51.12
9764;BME280;4921;43.214;27.936;2023-04-28T02:55:08;101268.28;;;11.00;52.12
9764;BME280;4921;43.214;27.936;2023-04-28T02:57:35;101274.94;;;10.93;52.10
9764;BME280;4921;43.214;27.936;2023-04-28T03:00:01;101267.47;;;11.00;51.81
9764;BME280;4921;43.214;27.936;2023-04-28T03:02:29;101269.47;;;10.84;52.26
9764;BME280;4921;43.214;27.936;2023-04-28T03:04:56;101277.91;;;10.89;52.20
9764;BME280;4921;43.214;27.936;2023-04-28T03:07:25;101283.25;;;10.87;52.60
9764;BME280;4921;43.214;27.936;2023-04-28T03:09:51;101286.97;;;10.85;52.47
9764;BME280;4921;43.214;27.936;2023-04-28T03:12:19;101288.22;;;10.66;53.34
9764;BME280;4921;43.214;27.936;2023-04-28T03:14:45;101288.13;;;10.68;53.53
9764;BME280;4921;43.214;27.936;2023-04-28T03:17:12;101300.53;;;10.66;54.11
9764;BME280;4921;43.214;27.936;2023-04-28T03:19:39;101296.84;;;10.68;54.20
9764;BME280;4921;43.214;27.936;2023-04-28T03:22:06;101298.53;;;10.57;55.18
9764;BME280;4921;43.214;27.936;2023-04-28T03:24:34;101306.31;;;10.71;55.69
9764;BME280;4921;43.214;27.936;2023-04-28T03:27:01;101310.31;;;10.51;55.30
9764;BME280;4921;43.214;27.936;2023-04-28T03:29:30;101311.91;;;10.54;55.35
9764;BME280;4921;43.214;27.936;2023-04-28T03:31:57;101309.16;;;10.55;55.79
9764;BME280;4921;43.214;27.936;2023-04-28T03:34:24;101314.31;;;10.44;56.43
9764;BME280;4921;43.214;27.936;2023-04-28T03:36:51;101315.16;;;10.32;56.00
9764;BME280;4921;43.214;27.936;2023-04-28T03:39:18;101317.47;;;10.37;56.39
9764;BME280;4921;43.214;27.936;2023-04-28T03:41:46;101322.00;;;10.35;55.68
9764;BME280;4921;43.214;27.936;2023-04-28T03:44:13;101318.63;;;10.45;55.83
9764;BME280;4921;43.214;27.936;2023-04-28T03:46:40;101318.84;;;10.42;55.46
9764;BME280;4921;43.214;27.936;2023-04-28T03:49:07;101335.34;;;10.44;55.04
9764;BME280;4921;43.214;27.936;2023-04-28T03:51:33;101328.72;;;10.51;54.53
9764;BME280;4921;43.214;27.936;2023-04-28T03:54:00;101336.19;;;10.45;55.18
9764;BME280;4921;43.214;27.936;2023-04-28T03:56:30;101334.72;;;10.41;55.49
9764;BME280;4921;43.214;27.936;2023-04-28T03:58:58;101338.28;;;10.52;54.76
9764;BME280;4921;43.214;27.936;2023-04-28T04:01:25;101340.50;;;10.46;54.89
9764;BME280;4921;43.214;27.936;2023-04-28T04:03:52;101333.31;;;10.35;55.42
9764;BME280;4921;43.214;27.936;2023-04-28T04:06:20;101343.66;;;10.38;56.25
9764;BME280;4921;43.214;27.936;2023-04-28T04:08:47;101351.97;;;10.45;56.21
9764;BME280;4921;43.214;27.936;2023-04-28T04:11:15;101337.13;;;10.44;56.56
9764;BME280;4921;43.214;27.936;2023-04-28T04:13:41;101339.06;;;10.67;55.33
9764;BME280;4921;43.214;27.936;2023-04-28T04:16:10;101342.94;;;10.61;54.97
9764;BME280;4921;43.214;27.936;2023-04-28T04:18:40;101351.88;;;10.84;58.34
9764;BME280;4921;43.214;27.936;2023-04-28T04:21:07;101350.09;;;10.97;58.39
9764;BME280;4921;43.214;27.936;2023-04-28T04:23:34;101347.34;;;11.11;55.01
9764;BME280;4921;43.214;27.936;2023-04-28T04:26:01;101343.09;;;11.21;53.21
9764;BME280;4921;43.214;27.936;2023-04-28T04:28:28;101345.59;;;11.35;52.57
9764;BME280;4921;43.214;27.936;2023-04-28T04:30:55;101347.28;;;11.36;52.56
9764;BME280;4921;43.214;27.936;2023-04-28T04:33:23;101348.66;;;11.42;51.48
9764;BME280;4921;43.214;27.936;2023-04-28T04:35:50;101348.81;;;11.51;49.03
9764;BME280;4921;43.214;27.936;2023-04-28T04:38:17;101352.06;;;11.68;48.15
9764;BME280;4921;43.214;27.936;2023-04-28T04:40:44;101346.88;;;11.79;47.07
9764;BME280;4921;43.214;27.936;2023-04-28T04:43:11;101350.63;;;11.87;47.17
9764;BME280;4921;43.214;27.936;2023-04-28T04:45:38;101349.31;;;11.93;47.32
9764;BME280;4921;43.214;27.936;2023-04-28T04:48:06;101350.56;;;12.00;47.27
9764;BME280;4921;43.214;27.936;2023-04-28T04:50:34;101345.22;;;12.12;46.01
9764;BME280;4921;43.214;27.936;2023-04-28T04:53:01;101336.41;;;12.24;45.58
9764;BME280;4921;43.214;27.936;2023-04-28T04:55:28;101337.84;;;12.29;45.47
9764;BME280;4921;43.214;27.936;2023-04-28T04:57:55;101338.63;;;12.42;44.63
9764;BME280;4921;43.214;27.936;2023-04-28T05:00:22;101343.91;;;12.53;44.64
9764;BME280;4921;43.214;27.936;2023-04-28T05:02:49;101337.78;;;12.52;45.46
9764;BME280;4921;43.214;27.936;2023-04-28T05:05:15;101345.03;;;12.61;44.01
9764;BME280;4921;43.214;27.936;2023-04-28T05:07:44;101343.13;;;12.74;42.58
9764;BME280;4921;43.214;27.936;2023-04-28T05:10:11;101336.38;;;12.81;42.95
9764;BME280;4921;43.214;27.936;2023-04-28T05:12:38;101345.75;;;12.85;43.18
9764;BME280;4921;43.214;27.936;2023-04-28T05:15:06;101344.19;;;12.94;42.82
9764;BME280;4921;43.214;27.936;2023-04-28T05:17:33;101350.94;;;13.09;42.17
9764;BME280;4921;43.214;27.936;2023-04-28T05:20:00;101351.81;;;13.21;41.52
9764;BME280;4921;43.214;27.936;2023-04-28T05:22:27;101348.94;;;13.24;42.27
9764;BME280;4921;43.214;27.936;2023-04-28T05:24:57;101343.03;;;13.31;42.08
9764;BME280;4921;43.214;27.936;2023-04-28T05:27:24;101348.94;;;13.35;43.01
9764;BME280;4921;43.214;27.936;2023-04-28T05:29:51;101341.91;;;13.56;41.35
9764;BME280;4921;43.214;27.936;2023-04-28T05:32:18;101343.59;;;13.57;40.50
9764;BME280;4921;43.214;27.936;2023-04-28T05:34:45;101352.72;;;13.53;40.37
9764;BME280;4921;43.214;27.936;2023-04-28T05:37:12;101352.56;;;13.65;40.84
9764;BME280;4921;43.214;27.936;2023-04-28T05:39:39;101341.75;;;13.80;40.57
9764;BME280;4921;43.214;27.936;2023-04-28T05:42:08;101339.44;;;13.86;41.33
9764;BME280;4921;43.214;27.936;2023-04-28T05:44:34;101348.53;;;13.93;40.43
9764;BME280;4921;43.214;27.936;2023-04-28T05:47:02;101348.00;;;14.10;39.31
9764;BME280;4921;43.214;27.936;2023-04-28T05:49:29;101341.69;;;14.22;37.36
9764;BME280;4921;43.214;27.936;2023-04-28T05:51:55;101355.16;;;14.19;37.93
9764;BME280;4921;43.214;27.936;2023-04-28T05:54:22;101350.47;;;14.23;37.73
9764;BME280;4921;43.214;27.936;2023-04-28T05:56:50;101352.66;;;14.18;39.71
9764;BME280;4921;43.214;27.936;2023-04-28T05:59:18;101351.19;;;14.25;39.68
9764;BME280;4921;43.214;27.936;2023-04-28T06:01:45;101352.69;;;14.38;38.69
9764;BME280;4921;43.214;27.936;2023-04-28T06:04:12;101348.00;;;14.42;39.13
9764;BME280;4921;43.214;27.936;2023-04-28T06:06:39;101367.09;;;14.45;37.76
9764;BME280;4921;43.214;27.936;2023-04-28T06:09:15;101354.50;;;14.59;37.38
9764;BME280;4921;43.214;27.936;2023-04-28T06:11:42;101361.22;;;14.63;36.81
9764;BME280;4921;43.214;27.936;2023-04-28T06:14:09;101357.47;;;14.65;37.53
9764;BME280;4921;43.214;27.936;2023-04-28T06:16:37;101340.75;;;14.65;38.37
9764;BME280;4921;43.214;27.936;2023-04-28T06:19:04;101356.19;;;14.80;38.76
9764;BME280;4921;43.214;27.936;2023-04-28T06:21:31;101358.81;;;15.01;37.43
9764;BME280;4921;43.214;27.936;2023-04-28T06:23:58;101356.97;;;15.01;38.00
9764;BME280;4921;43.214;27.936;2023-04-28T06:26:26;101356.97;;;15.01;37.88
9764;BME280;4921;43.214;27.936;2023-04-28T06:28:53;101364.84;;;15.12;38.66
9764;BME280;4921;43.214;27.936;2023-04-28T06:31:20;101354.72;;;15.27;37.27
9764;BME280;4921;43.214;27.936;2023-04-28T06:33:48;101345.56;;;15.41;36.13
9764;BME280;4921;43.214;27.936;2023-04-28T06:36:15;101366.00;;;15.50;36.46
9764;BME280;4921;43.214;27.936;2023-04-28T06:38:42;101353.72;;;15.58;36.66
9764;BME280;4921;43.214;27.936;2023-04-28T06:41:09;101361.53;;;15.60;36.22
9764;BME280;4921;43.214;27.936;2023-04-28T06:43:36;101352.94;;;15.67;36.19
9764;BME280;4921;43.214;27.936;2023-04-28T06:46:03;101350.84;;;15.80;35.57
9764;BME280;4921;43.214;27.936;2023-04-28T06:48:30;101355.19;;;15.91;36.25
9764;BME280;4921;43.214;27.936;2023-04-28T06:50:59;101350.47;;;16.04;35.80
9764;BME280;4921;43.214;27.936;2023-04-28T06:53:26;101342.47;;;16.14;36.10
9764;BME280;4921;43.214;27.936;2023-04-28T06:55:53;101356.72;;;16.32;35.44
9764;BME280;4921;43.214;27.936;2023-04-28T06:58:21;101355.19;;;16.20;35.72
9764;BME280;4921;43.214;27.936;2023-04-28T07:00:47;101349.88;;;16.29;35.50
9764;BME280;4921;43.214;27.936;2023-04-28T07:03:15;101343.31;;;16.33;34.79
9764;BME280;4921;43.214;27.936;2023-04-28T07:05:42;101349.84;;;16.48;33.95
9764;BME280;4921;43.214;27.936;2023-04-28T07:08:10;101341.47;;;16.43;35.03
9764;BME280;4921;43.214;27.936;2023-04-28T07:10:37;101348.78;;;16.51;34.66
9764;BME280;4921;43.214;27.936;2023-04-28T07:13:05;101359.94;;;16.35;34.93
9764;BME280;4921;43.214;27.936;2023-04-28T07:15:32;101356.16;;;16.47;33.61
9764;BME280;4921;43.214;27.936;2023-04-28T07:17:59;101342.47;;;16.33;34.72
9764;BME280;4921;43.214;27.936;2023-04-28T07:20:26;101348.78;;;16.51;33.83
9764;BME280;4921;43.214;27.936;2023-04-28T07:22:53;101344.69;;;16.47;34.06
9764;BME280;4921;43.214;27.936;2023-04-28T07:25:22;101350.44;;;16.52;33.24
9764;BME280;4921;43.214;27.936;2023-04-28T07:27:49;101347.94;;;16.60;33.48
9764;BME280;4921;43.214;27.936;2023-04-28T07:30:16;101333.53;;;16.62;33.86
9764;BME280;4921;43.214;27.936;2023-04-28T07:32:43;101348.16;;;16.76;33.74
9764;BME280;4921;43.214;27.936;2023-04-28T07:35:10;101345.91;;;16.81;34.20
9764;BME280;4921;43.214;27.936;2023-04-28T07:37:37;101351.22;;;16.91;34.79
9764;BME280;4921;43.214;27.936;2023-04-28T07:40:05;101345.69;;;17.02;33.15
9764;BME280;4921;43.214;27.936;2023-04-28T07:42:34;101351.31;;;16.99;32.27
9764;BME280;4921;43.214;27.936;2023-04-28T07:45:01;101343.41;;;17.16;32.46
9764;BME280;4921;43.214;27.936;2023-04-28T07:47:29;101349.97;;;17.12;34.24
9764;BME280;4921;43.214;27.936;2023-04-28T07:49:56;101354.50;;;17.12;32.92
9764;BME280;4921;43.214;27.936;2023-04-28T07:52:24;101350.06;;;17.30;31.94
9764;BME280;4921;43.214;27.936;2023-04-28T07:54:51;101346.59;;;17.29;32.25
9764;BME280;4921;43.214;27.936;2023-04-28T07:57:18;101332.28;;;17.30;31.81
9764;BME280;4921;43.214;27.936;2023-04-28T07:59:46;101343.41;;;17.16;31.84
9764;BME280;4921;43.214;27.936;2023-04-28T08:02:13;101344.13;;;17.18;32.22
9764;BME280;4921;43.214;27.936;2023-04-28T08:04:40;101335.28;;;17.18;31.84
9764;BME280;4921;43.214;27.936;2023-04-28T08:07:07;101344.25;;;17.17;31.39
9764;BME280;4921;43.214;27.936;2023-04-28T08:09:34;101314.31;;;17.15;31.66
9764;BME280;4921;43.214;27.936;2023-04-28T08:12:02;101327.13;;;17.29;34.00
9764;BME280;4921;43.214;27.936;2023-04-28T08:14:29;101327.50;;;17.34;31.79
9764;BME280;4921;43.214;27.936;2023-04-28T08:16:57;101334.75;;;17.41;31.59
9764;BME280;4921;43.214;27.936;2023-04-28T08:19:24;101324.81;;;17.43;31.70
9764;BME280;4921;43.214;27.936;2023-04-28T08:21:51;101326.84;;;17.59;30.22
9764;BME280;4921;43.214;27.936;2023-04-28T08:24:18;101321.13;;;17.54;33.23
9764;BME280;4921;43.214;27.936;2023-04-28T08:26:45;101323.00;;;17.44;31.84
9764;BME280;4921;43.214;27.936;2023-04-28T08:29:12;101317.78;;;17.42;31.10
9764;BME280;4921;43.214;27.936;2023-04-28T08:31:39;101318.03;;;17.59;31.58
9764;BME280;4921;43.214;27.936;2023-04-28T08:34:07;101299.78;;;17.64;32.95
9764;BME280;4921;43.214;27.936;2023-04-28T08:36:34;101296.22;;;17.55;33.08
9764;BME280;4921;43.214;27.936;2023-04-28T08:39:01;101310.50;;;17.54;34.92
9764;BME280;4921;43.214;27.936;2023-04-28T08:41:31;101298.94;;;17.63;33.50
9764;BME280;4921;43.214;27.936;2023-04-28T08:43:58;101303.34;;;17.55;33.59
9764;BME280;4921;43.214;27.936;2023-04-28T08:46:26;101308.50;;;17.56;32.24
9764;BME280;4921;43.214;27.936;2023-04-28T08:48:59;101298.31;;;17.51;32.24
9764;BME280;4921;43.214;27.936;2023-04-28T08:51:32;101294.25;;;17.57;32.71
9764;BME280;4921;43.214;27.936;2023-04-28T08:54:02;101299.41;;;17.59;33.04
9764;BME280;4921;43.214;27.936;2023-04-28T08:56:31;101288.84;;;17.67;31.38
9764;BME280;4921;43.214;27.936;2023-04-28T08:59:01;101274.31;;;17.61;31.13
9764;BME280;4921;43.214;27.936;2023-04-28T09:01:29;101291.88;;;17.72;29.93
9764;BME280;4921;43.214;27.936;2023-04-28T09:03:56;101287.47;;;17.63;30.81
9764;BME280;4921;43.214;27.936;2023-04-28T09:06:23;101281.94;;;17.74;30.52
9764;BME280;4921;43.214;27.936;2023-04-28T09:08:52;101276.09;;;17.70;31.24
9764;BME280;4921;43.214;27.936;2023-04-28T09:11:19;101294.94;;;17.77;31.11
9764;BME280;4921;43.214;27.936;2023-04-28T09:13:45;101285.50;;;17.82;30.12
9764;BME280;4921;43.214;27.936;2023-04-28T09:16:13;101275.16;;;17.97;29.18
9764;BME280;4921;43.214;27.936;2023-04-28T09:18:41;101289.38;;;17.88;29.79
9764;BME280;4921;43.214;27.936;2023-04-28T09:21:21;101272.81;;;17.76;29.46
9764;BME280;4921;43.214;27.936;2023-04-28T09:23:48;101282.56;;;17.85;30.80
9764;BME280;4921;43.214;27.936;2023-04-28T09:26:16;101275.81;;;17.99;38.16
9764;BME280;4921;43.214;27.936;2023-04-28T09:28:43;101280.47;;;18.14;33.83
9764;BME280;4921;43.214;27.936;2023-04-28T09:31:23;101285.69;;;18.24;36.57
9764;BME280;4921;43.214;27.936;2023-04-28T09:33:58;101290.28;;;18.40;41.73
9764;BME280;4921;43.214;27.936;2023-04-28T09:36:26;101285.06;;;18.48;34.11
9764;BME280;4921;43.214;27.936;2023-04-28T09:38:56;101285.16;;;18.64;33.50
9764;BME280;4921;43.214;27.936;2023-04-28T09:41:34;101279.97;;;18.88;32.37
9764;BME280;4921;43.214;27.936;2023-04-28T09:44:12;101266.72;;;19.04;30.07
9764;BME280;4921;43.214;27.936;2023-04-28T09:46:40;101269.06;;;19.15;29.94
9764;BME280;4921;43.214;27.936;2023-04-28T09:49:07;101268.25;;;19.15;29.89
9764;BME280;4921;43.214;27.936;2023-04-28T09:51:34;101268.84;;;19.34;31.92
9764;BME280;4921;43.214;27.936;2023-04-28T09:54:02;101265.19;;;19.43;30.25
9764;BME280;4921;43.214;27.936;2023-04-28T09:56:31;101263.22;;;19.61;28.98
9764;BME280;4921;43.214;27.936;2023-04-28T09:58:59;101260.44;;;19.71;30.60
9764;BME280;4921;43.214;27.936;2023-04-28T10:01:31;101256.88;;;19.54;28.21
9764;BME280;4921;43.214;27.936;2023-04-28T10:03:59;101257.72;;;19.63;28.52
9764;BME280;4921;43.214;27.936;2023-04-28T10:06:27;101259.59;;;19.70;30.86
9764;BME280;4921;43.214;27.936;2023-04-28T10:08:55;101254.72;;;19.74;29.90
9764;BME280;4921;43.214;27.936;2023-04-28T10:11:24;101244.75;;;20.00;30.60
9764;BME280;4921;43.214;27.936;2023-04-28T10:13:54;101249.91;;;20.02;28.83
9764;BME280;4921;43.214;27.936;2023-04-28T10:16:21;101255.94;;;20.12;28.06
9764;BME280;4921;43.214;27.936;2023-04-28T10:18:49;101257.59;;;20.29;27.51
9764;BME280;4921;43.214;27.936;2023-04-28T10:21:18;101260.41;;;20.19;25.77
9764;BME280;4921;43.214;27.936;2023-04-28T10:24:08;101255.41;;;20.40;25.80
9764;BME280;4921;43.214;27.936;2023-04-28T10:27:06;101246.69;;;20.55;25.72
9764;BME280;4921;43.214;27.936;2023-04-28T10:29:35;101240.34;;;20.64;24.94
9764;BME280;4921;43.214;27.936;2023-04-28T10:32:19;101240.38;;;20.15;25.78
9764;BME280;4921;43.214;27.936;2023-04-28T10:34:46;101224.88;;;20.11;26.07
9764;BME280;4921;43.214;27.936;2023-04-28T10:37:13;101238.22;;;20.03;27.53
9764;BME280;4921;43.214;27.936;2023-04-28T10:42:51;101256.94;;;19.95;25.59
9764;BME280;4921;43.214;27.936;2023-04-28T10:48:20;101245.91;;;19.98;26.75
9764;BME280;4921;43.214;27.936;2023-04-28T10:51:21;101244.91;;;19.83;26.08
9764;BME280;4921;43.214;27.936;2023-04-28T10:54:15;101256.41;;;19.91;27.01
9764;BME280;4921;43.214;27.936;2023-04-28T10:59:46;101251.91;;;19.84;26.63
9764;BME280;4921;43.214;27.936;2023-04-28T11:02:47;101246.56;;;19.67;26.28
9764;BME280;4921;43.214;27.936;2023-04-28T11:05:16;101250.38;;;19.65;26.00
9764;BME280;4921;43.214;27.936;2023-04-28T11:11:26;101249.03;;;19.53;26.02
9764;BME280;4921;43.214;27.936;2023-04-28T11:13:54;101240.84;;;19.46;26.37
9764;BME280;4921;43.214;27.936;2023-04-28T11:16:23;101230.53;;;19.59;26.70
9764;BME280;4921;43.214;27.936;2023-04-28T11:18:55;101233.72;;;19.79;26.22
9764;BME280;4921;43.214;27.936;2023-04-28T11:21:25;101244.91;;;19.83;25.55
9764;BME280;4921;43.214;27.936;2023-04-28T11:23:53;101221.69;;;19.51;25.23
9764;BME280;4921;43.214;27.936;2023-04-28T11:26:21;101234.75;;;19.20;26.28
9764;BME280;4921;43.214;27.936;2023-04-28T11:28:50;101234.78;;;19.28;26.80
9764;BME280;4921;43.214;27.936;2023-04-28T11:31:18;101238.47;;;19.27;26.35
9764;BME280;4921;43.214;27.936;2023-04-28T11:33:53;101236.50;;;19.37;26.89
9764;BME280;4921;43.214;27.936;2023-04-28T11:36:26;101241.53;;;19.48;27.51
9764;BME280;4921;43.214;27.936;2023-04-28T11:38:54;101228.19;;;19.40;26.86
9764;BME280;4921;43.214;27.936;2023-04-28T11:41:22;101237.50;;;19.36;27.99
9764;BME280;4921;43.214;27.936;2023-04-28T11:43:49;101244.00;;;19.42;26.96
9764;BME280;4921;43.214;27.936;2023-04-28T11:46:18;101234.78;;;19.28;28.89
9764;BME280;4921;43.214;27.936;2023-04-28T11:48:45;101236.59;;;19.20;28.17
9764;BME280;4921;43.214;27.936;2023-04-28T11:51:30;101248.75;;;19.14;26.56
9764;BME280;4921;43.214;27.936;2023-04-28T11:53:58;101243.91;;;19.18;26.44
9764;BME280;4921;43.214;27.936;2023-04-28T11:56:26;101228.13;;;19.32;26.16
9764;BME280;4921;43.214;27.936;2023-04-28T11:59:03;101227.81;;;19.35;27.20
9764;BME280;4921;43.214;27.936;2023-04-28T12:01:31;101238.84;;;19.40;27.64
9764;BME280;4921;43.214;27.936;2023-04-28T12:03:58;101233.63;;;19.31;27.29
9764;BME280;4921;43.214;27.936;2023-04-28T12:06:25;101225.84;;;19.37;26.87
9764;BME280;4921;43.214;27.936;2023-04-28T12:08:55;101220.34;;;19.47;26.88
9764;BME280;4921;43.214;27.936;2023-04-28T12:11:22;101222.94;;;19.31;26.75
9764;BME280;4921;43.214;27.936;2023-04-28T12:14:07;101215.69;;;19.49;26.23
9764;BME280;4921;43.214;27.936;2023-04-28T12:16:39;101209.03;;;19.45;26.64
9764;BME280;4921;43.214;27.936;2023-04-28T12:19:09;101217.03;;;19.45;26.50
9764;BME280;4921;43.214;27.936;2023-04-28T12:21:36;101207.69;;;19.49;26.97
9764;BME280;4921;43.214;27.936;2023-04-28T12:24:16;101202.66;;;19.46;26.54
9764;BME280;4921;43.214;27.936;2023-04-28T12:26:43;101208.84;;;19.46;26.23
9764;BME280;4921;43.214;27.936;2023-04-28T12:29:35;101206.97;;;19.39;27.64
9764;BME280;4921;43.214;27.936;2023-04-28T12:32:04;101202.09;;;19.18;28.08
9764;BME280;4921;43.214;27.936;2023-04-28T12:34:31;101197.34;;;18.96;27.23
9764;BME280;4921;43.214;27.936;2023-04-28T12:36:59;101209.16;;;18.93;27.18
9764;BME280;4921;43.214;27.936;2023-04-28T12:39:28;101190.69;;;18.92;27.10
9764;BME280;4921;43.214;27.936;2023-04-28T12:41:55;101198.00;;;18.90;27.82
9764;BME280;4921;43.214;27.936;2023-04-28T12:44:23;101201.44;;;18.74;28.72
9764;BME280;4921;43.214;27.936;2023-04-28T12:46:52;101204.44;;;18.71;28.67
9764;BME280;4921;43.214;27.936;2023-04-28T12:49:20;101203.59;;;18.71;27.95
9764;BME280;4921;43.214;27.936;2023-04-28T12:51:47;101206.63;;;18.76;27.76
9764;BME280;4921;43.214;27.936;2023-04-28T12:54:14;101207.63;;;18.83;27.90
9764;BME280;4921;43.214;27.936;2023-04-28T12:56:43;101194.84;;;18.86;27.54
9764;BME280;4921;43.214;27.936;2023-04-28T12:59:10;101199.91;;;18.72;27.50
9764;BME280;4921;43.214;27.936;2023-04-28T13:01:37;101214.38;;;18.61;28.25
9764;BME280;4921;43.214;27.936;2023-04-28T13:04:04;101202.56;;;18.64;27.71
9764;BME280;4921;43.214;27.936;2023-04-28T13:06:31;101206.13;;;18.47;27.56
9764;BME280;4921;43.214;27.936;2023-04-28T13:08:59;101209.19;;;18.60;28.27
9764;BME280;4921;43.214;27.936;2023-04-28T13:11:28;101191.94;;;18.72;27.60
9764;BME280;4921;43.214;27.936;2023-04-28T13:13:57;101191.94;;;18.72;28.99
9764;BME280;4921;43.214;27.936;2023-04-28T13:16:24;101199.13;;;18.79;28.72
9764;BME280;4921;43.214;27.936;2023-04-28T13:18:54;101197.63;;;18.77;28.37